Metar z połowy godziny Komunikat METAR ze strony awiacja.imgw.pl Metar G30 EPDA METAR EPDA 162300Z 15004KT 100V200 9999 OVC027 M01/M04 Q1017 RMK M006 078 8/8 =